Time,TemperatureF,DewpointF,PressureIn,WindDirection,WindDirectionDegrees,WindSpeedMPH,WindSpeedGustMPH,Humidity,HourlyPrecipIn,Conditions,Clouds,dailyrainin,SolarRadiationWatts/m^2,SoftwareType,DateUTC
2013-08-02 00:01:00,63.4,62.5,29.91,NW,307,0.0,0.0,97,0.00,,,0.00,0,Wunderground v.1.15,2013-08-02 04:01:00,
2013-08-02 00:04:00,63.5,62.6,29.91,NW,307,0.0,0.0,97,0.00,,,0.00,0,Wunderground v.1.15,2013-08-02 04:04:00,
2013-08-02 00:06:00,63.5,62.6,29.91,NW,307,0.0,0.0,97,0.00,,,0.01,0,Wunderground v.1.15,2013-08-02 04:06:00,
2013-08-02 00:11:00,63.5,62.6,29.90,NW,307,0.0,0.0,97,0.00,,,0.01,0,Wunderground v.1.15,2013-08-02 04:11:00,
2013-08-02 00:16:00,63.5,62.6,29.91,NW,307,0.0,0.0,97,0.00,,,0.01,0,Wunderground v.1.15,2013-08-02 04:16:00,
2013-08-02 00:20:00,63.4,62.5,29.90,NW,307,0.0,0.0,97,0.00,,,0.01,0,Wunderground v.1.15,2013-08-02 04:20:00,
2013-08-02 00:25:00,63.3,62.4,29.90,NW,307,0.0,0.0,97,0.00,,,0.01,0,Wunderground v.1.15,2013-08-02 04:25:00,
2013-08-02 00:30:00,63.2,62.3,29.90,NW,307,0.0,0.0,97,0.00,,,0.01,0,Wunderground v.1.15,2013-08-02 04:30:00,
2013-08-02 00:35:00,63.4,62.5,29.90,NW,307,0.0,0.0,97,0.00,,,0.01,0,Wunderground v.1.15,2013-08-02 04:35:00,
2013-08-02 00:42:00,63.3,62.4,29.90,NW,307,0.0,0.0,97,0.00,,,0.01,0,Wunderground v.1.15,2013-08-02 04:42:00,
2013-08-02 00:48:00,63.4,62.5,29.89,NW,307,0.0,0.0,97,0.00,,,0.01,0,Wunderground v.1.15,2013-08-02 04:48:00,
2013-08-02 00:53:00,63.5,62.6,29.89,NW,307,0.0,0.0,97,0.00,,,0.02,0,Wunderground v.1.15,2013-08-02 04:53:00,
2013-08-02 00:59:00,63.5,62.6,29.89,NW,307,0.0,0.0,97,0.00,,,0.02,0,Wunderground v.1.15,2013-08-02 04:59:00,
2013-08-02 01:05:00,63.6,62.7,29.88,NW,307,0.0,0.0,97,0.00,,,0.02,0,Wunderground v.1.15,2013-08-02 05:05:00,
2013-08-02 01:10:00,63.5,62.6,29.88,NW,307,0.0,0.0,97,0.00,,,0.02,0,Wunderground v.1.15,2013-08-02 05:10:00,
2013-08-02 01:17:00,63.6,62.7,29.88,NW,307,0.0,0.0,97,0.00,,,0.02,0,Wunderground v.1.15,2013-08-02 05:17:00,
2013-08-02 01:22:00,63.7,62.8,29.88,NW,307,0.0,0.0,97,0.00,,,0.02,0,Wunderground v.1.15,2013-08-02 05:22:00,
2013-08-02 01:27:00,63.7,62.8,29.87,NW,307,0.0,0.0,97,0.00,,,0.02,0,Wunderground v.1.15,2013-08-02 05:27:00,
2013-08-02 01:33:00,63.8,62.9,29.87,NW,307,0.0,0.0,97,0.00,,,0.02,0,Wunderground v.1.15,2013-08-02 05:33:00,
2013-08-02 01:38:00,63.8,62.9,29.86,NW,307,0.0,0.0,97,0.00,,,0.02,0,Wunderground v.1.15,2013-08-02 05:38:00,
2013-08-02 01:43:00,63.8,62.9,29.86,NW,307,0.0,0.0,97,0.00,,,0.02,0,Wunderground v.1.15,2013-08-02 05:43:00,
2013-08-02 01:49:00,63.7,62.8,29.85,NW,307,0.0,0.0,97,0.00,,,0.02,0,Wunderground v.1.15,2013-08-02 05:49:00,
2013-08-02 01:54:00,63.6,62.7,29.85,NW,307,0.0,0.0,97,0.00,,,0.02,0,Wunderground v.1.15,2013-08-02 05:54:00,
2013-08-02 02:00:00,63.6,62.7,29.85,NW,307,0.0,0.0,97,0.00,,,0.02,0,Wunderground v.1.15,2013-08-02 06:00:00,
2013-08-02 02:05:00,63.6,62.7,29.85,NW,307,0.0,0.0,97,0.00,,,0.02,0,Wunderground v.1.15,2013-08-02 06:05:00,
2013-08-02 02:10:00,63.6,62.7,29.85,NW,307,0.0,0.0,97,0.00,,,0.02,0,Wunderground v.1.15,2013-08-02 06:10:00,
2013-08-02 02:15:00,63.6,62.7,29.85,NW,307,0.0,0.0,97,0.00,,,0.02,0,Wunderground v.1.15,2013-08-02 06:15:00,
2013-08-02 02:22:00,63.6,62.7,29.84,NW,307,0.0,0.0,97,0.00,,,0.02,0,Wunderground v.1.15,2013-08-02 06:22:00,
2013-08-02 02:28:00,63.5,62.6,29.84,NW,307,0.0,0.0,97,0.00,,,0.02,0,Wunderground v.1.15,2013-08-02 06:28:00,
2013-08-02 02:33:00,63.5,62.6,29.84,NW,307,0.0,0.0,97,0.00,,,0.02,0,Wunderground v.1.15,2013-08-02 06:33:00,
2013-08-02 02:39:00,63.5,62.9,29.84,NW,307,0.0,0.0,98,0.00,,,0.02,0,Wunderground v.1.15,2013-08-02 06:39:00,
2013-08-02 02:45:00,63.6,63.0,29.83,NW,307,0.0,0.0,98,0.00,,,0.02,0,Wunderground v.1.15,2013-08-02 06:45:00,
2013-08-02 02:51:00,63.7,63.1,29.83,NW,307,0.0,0.0,98,0.00,,,0.02,0,Wunderground v.1.15,2013-08-02 06:51:00,
2013-08-02 02:57:00,63.6,63.0,29.82,NW,307,0.0,0.0,98,0.00,,,0.02,0,Wunderground v.1.15,2013-08-02 06:57:00,
2013-08-02 03:02:00,63.6,63.0,29.83,NW,307,0.0,0.0,98,0.00,,,0.02,0,Wunderground v.1.15,2013-08-02 07:02:00,
2013-08-02 03:08:00,63.5,62.9,29.83,NW,307,0.0,0.0,98,0.00,,,0.02,0,Wunderground v.1.15,2013-08-02 07:08:00,
2013-08-02 03:13:00,63.6,63.0,29.83,NW,307,0.0,0.0,98,0.00,,,0.02,0,Wunderground v.1.15,2013-08-02 07:13:00,
2013-08-02 03:18:00,63.7,63.1,29.82,NW,307,0.0,0.0,98,0.00,,,0.02,0,Wunderground v.1.15,2013-08-02 07:18:00,
2013-08-02 03:24:00,63.7,63.1,29.82,NW,307,0.0,0.0,98,0.00,,,0.02,0,Wunderground v.1.15,2013-08-02 07:24:00,
2013-08-02 03:29:00,63.8,63.2,29.82,NW,307,0.0,0.0,98,0.00,,,0.02,0,Wunderground v.1.15,2013-08-02 07:29:00,
2013-08-02 03:35:00,63.9,63.3,29.82,NW,307,0.0,0.0,98,0.00,,,0.02,0,Wunderground v.1.15,2013-08-02 07:35:00,
2013-08-02 03:40:00,63.9,63.3,29.82,NW,307,0.0,0.0,98,0.00,,,0.02,0,Wunderground v.1.15,2013-08-02 07:40:00,
2013-08-02 03:46:00,63.9,63.3,29.82,NW,307,0.0,0.0,98,0.00,,,0.02,0,Wunderground v.1.15,2013-08-02 07:46:00,
2013-08-02 03:51:00,64.0,63.4,29.82,NW,307,0.0,0.0,98,0.00,,,0.02,0,Wunderground v.1.15,2013-08-02 07:51:00,
2013-08-02 03:57:00,63.8,63.2,29.82,NW,307,0.0,0.0,98,0.00,,,0.02,0,Wunderground v.1.15,2013-08-02 07:57:00,
2013-08-02 04:03:00,63.8,63.2,29.83,NW,307,0.0,0.0,98,0.00,,,0.02,0,Wunderground v.1.15,2013-08-02 08:03:00,
2013-08-02 04:08:00,64.0,63.4,29.83,NW,307,0.0,0.0,98,0.00,,,0.02,0,Wunderground v.1.15,2013-08-02 08:08:00,
2013-08-02 04:14:00,64.2,63.6,29.83,NW,307,0.0,0.0,98,0.00,,,0.02,0,Wunderground v.1.15,2013-08-02 08:14:00,
2013-08-02 04:19:00,64.4,63.8,29.82,NW,307,0.0,0.0,98,0.00,,,0.02,0,Wunderground v.1.15,2013-08-02 08:19:00,
2013-08-02 04:25:00,64.6,64.0,29.82,NW,307,0.0,0.0,98,0.00,,,0.02,0,Wunderground v.1.15,2013-08-02 08:25:00,
2013-08-02 04:30:00,64.6,64.0,29.83,NW,307,0.0,0.0,98,0.00,,,0.02,0,Wunderground v.1.15,2013-08-02 08:30:00,
2013-08-02 04:37:00,64.6,64.0,29.82,NW,307,0.0,0.0,98,0.00,,,0.02,0,Wunderground v.1.15,2013-08-02 08:37:00,
2013-08-02 04:43:00,64.7,64.1,29.83,NW,307,0.0,0.0,98,0.00,,,0.02,0,Wunderground v.1.15,2013-08-02 08:43:00,
2013-08-02 04:48:00,64.8,64.2,29.82,NW,307,0.0,0.0,98,0.00,,,0.02,0,Wunderground v.1.15,2013-08-02 08:48:00,
2013-08-02 04:54:00,64.9,64.3,29.82,NW,307,0.0,0.0,98,0.00,,,0.02,0,Wunderground v.1.15,2013-08-02 08:54:00,
2013-08-02 05:00:00,64.9,64.3,29.82,NW,307,0.0,0.0,98,0.00,,,0.02,0,Wunderground v.1.15,2013-08-02 09:00:00,
2013-08-02 05:06:00,64.9,64.3,29.82,NW,307,0.0,0.0,98,0.00,,,0.02,0,Wunderground v.1.15,2013-08-02 09:06:00,
2013-08-02 05:12:00,65.0,64.4,29.82,NW,307,0.0,0.0,98,0.00,,,0.02,0,Wunderground v.1.15,2013-08-02 09:12:00,
2013-08-02 05:17:00,65.1,64.5,29.82,NW,307,0.0,0.0,98,0.00,,,0.02,0,Wunderground v.1.15,2013-08-02 09:17:00,
2013-08-02 05:23:00,65.3,64.7,29.82,NW,307,0.0,0.0,98,0.00,,,0.02,0,Wunderground v.1.15,2013-08-02 09:23:00,
2013-08-02 05:28:00,65.2,64.6,29.82,NW,307,0.0,0.0,98,0.00,,,0.02,0,Wunderground v.1.15,2013-08-02 09:28:00,
2013-08-02 05:33:00,65.3,64.7,29.82,NW,307,0.0,0.0,98,0.00,,,0.02,0,Wunderground v.1.15,2013-08-02 09:33:00,
2013-08-02 05:39:00,65.3,64.7,29.82,NW,307,0.0,0.0,98,0.00,,,0.02,0,Wunderground v.1.15,2013-08-02 09:39:00,
2013-08-02 05:44:00,65.3,64.7,29.82,NW,307,0.0,0.0,98,0.00,,,0.02,0,Wunderground v.1.15,2013-08-02 09:44:00,
2013-08-02 05:49:00,65.3,64.7,29.82,NW,307,0.0,0.0,98,0.00,,,0.02,0,Wunderground v.1.15,2013-08-02 09:49:00,
2013-08-02 05:54:00,65.4,64.8,29.82,NW,307,0.0,0.0,98,0.00,,,0.02,0,Wunderground v.1.15,2013-08-02 09:54:00,
2013-08-02 06:00:00,65.4,64.8,29.82,NW,307,0.0,0.0,98,0.00,,,0.02,0,Wunderground v.1.15,2013-08-02 10:00:00,
2013-08-02 06:05:00,65.4,64.8,29.82,NW,307,0.0,0.0,98,0.00,,,0.02,0,Wunderground v.1.15,2013-08-02 10:05:00,
2013-08-02 06:11:00,65.5,64.9,29.82,NW,307,0.0,0.0,98,0.00,,,0.03,0,Wunderground v.1.15,2013-08-02 10:11:00,
2013-08-02 06:16:00,65.5,64.9,29.82,NW,307,0.0,0.0,98,0.13,,,0.04,0,Wunderground v.1.15,2013-08-02 10:16:00,
2013-08-02 06:21:00,65.6,65.0,29.82,NW,307,0.0,0.0,98,0.07,,,0.05,0,Wunderground v.1.15,2013-08-02 10:21:00,
2013-08-02 06:26:00,65.6,65.0,29.82,NW,307,0.0,0.0,98,0.07,,,0.05,7,Wunderground v.1.15,2013-08-02 10:26:00,
2013-08-02 06:32:00,65.6,65.0,29.82,NW,307,0.0,0.0,98,0.05,,,0.05,9,Wunderground v.1.15,2013-08-02 10:32:00,
2013-08-02 06:38:00,65.7,65.1,29.82,NW,307,0.0,0.0,98,0.00,,,0.05,7,Wunderground v.1.15,2013-08-02 10:38:00,
2013-08-02 06:43:00,65.8,65.2,29.82,NW,307,0.0,0.0,98,0.00,,,0.05,5,Wunderground v.1.15,2013-08-02 10:43:00,
2013-08-02 06:48:00,65.8,65.2,29.83,NW,307,0.0,0.0,98,0.00,,,0.05,0,Wunderground v.1.15,2013-08-02 10:48:00,
2013-08-02 06:54:00,65.9,65.3,29.82,NW,307,0.0,0.0,98,0.00,,,0.05,5,Wunderground v.1.15,2013-08-02 10:54:00,
2013-08-02 07:00:00,66.0,65.4,29.83,NW,307,0.0,0.0,98,0.00,,,0.06,5,Wunderground v.1.15,2013-08-02 11:00:00,
2013-08-02 07:05:00,66.1,65.8,29.82,NW,307,0.0,0.0,99,0.06,,,0.07,7,Wunderground v.1.15,2013-08-02 11:05:00,
2013-08-02 07:11:00,66.1,65.8,29.82,NW,307,0.0,0.0,99,0.10,,,0.08,12,Wunderground v.1.15,2013-08-02 11:11:00,
2013-08-02 07:16:00,66.1,65.8,29.82,NW,307,0.0,0.0,99,0.10,,,0.08,14,Wunderground v.1.15,2013-08-02 11:16:00,
2013-08-02 07:21:00,66.3,66.0,29.83,NW,307,0.0,0.0,99,0.07,,,0.09,11,Wunderground v.1.15,2013-08-02 11:21:00,
2013-08-02 07:26:00,66.4,66.1,29.83,NW,307,0.0,0.0,99,0.07,,,0.09,16,Wunderground v.1.15,2013-08-02 11:26:00,
2013-08-02 07:31:00,66.6,66.3,29.83,NW,307,0.0,0.0,99,0.07,,,0.10,9,Wunderground v.1.15,2013-08-02 11:31:00,
2013-08-02 07:37:00,66.6,66.3,29.84,NW,307,0.0,0.0,99,0.07,,,0.10,0,Wunderground v.1.15,2013-08-02 11:37:00,
2013-08-02 07:43:00,66.6,66.0,29.84,NW,307,0.0,0.0,98,0.05,,,0.11,0,Wunderground v.1.15,2013-08-02 11:43:00,
2013-08-02 07:48:00,66.6,66.0,29.84,NW,307,0.0,0.0,98,0.26,,,0.13,5,Wunderground v.1.15,2013-08-02 11:48:00,
2013-08-02 07:53:00,66.7,66.4,29.84,NW,307,0.0,0.0,99,0.39,,,0.17,7,Wunderground v.1.15,2013-08-02 11:53:00,
2013-08-02 07:59:00,66.7,66.4,29.84,NNW,332,0.0,0.0,99,0.16,,,0.18,25,Wunderground v.1.15,2013-08-02 11:59:00,
2013-08-02 08:04:00,66.7,66.4,29.83,NNW,342,0.0,0.0,99,0.06,,,0.18,23,Wunderground v.1.15,2013-08-02 12:04:00,
2013-08-02 08:09:00,66.8,66.5,29.83,South,178,0.0,0.0,99,0.06,,,0.19,25,Wunderground v.1.15,2013-08-02 12:09:00,
2013-08-02 08:14:00,66.8,66.5,29.83,SSE,155,0.0,1.0,99,0.06,,,0.19,35,Wunderground v.1.15,2013-08-02 12:14:00,
2013-08-02 08:20:00,66.9,66.6,29.83,SSE,150,0.0,1.0,99,0.04,,,0.19,44,Wunderground v.1.15,2013-08-02 12:20:00,
2013-08-02 08:26:00,67.2,66.9,29.83,SSE,150,0.0,1.0,99,0.00,,,0.19,44,Wunderground v.1.15,2013-08-02 12:26:00,
2013-08-02 08:31:00,67.3,67.0,29.83,SSE,150,0.0,0.0,99,0.00,,,0.19,44,Wunderground v.1.15,2013-08-02 12:31:00,
2013-08-02 08:36:00,67.5,67.2,29.83,SSE,150,0.0,0.0,99,0.00,,,0.19,60,Wunderground v.1.15,2013-08-02 12:36:00,
2013-08-02 08:43:00,67.6,67.3,29.83,SSE,150,0.0,0.0,99,0.00,,,0.19,51,Wunderground v.1.15,2013-08-02 12:43:00,
2013-08-02 08:48:00,67.6,67.3,29.83,SSE,150,0.0,0.0,99,0.00,,,0.19,37,Wunderground v.1.15,2013-08-02 12:48:00,
2013-08-02 08:53:00,67.7,67.1,29.83,SSE,150,0.0,0.0,98,0.00,,,0.19,42,Wunderground v.1.15,2013-08-02 12:53:00,
2013-08-02 09:00:00,67.8,67.2,29.83,SSE,150,0.0,0.0,98,0.00,,,0.19,60,Wunderground v.1.15,2013-08-02 13:00:00,
2013-08-02 09:05:00,67.9,67.3,29.83,SSE,150,0.0,0.0,98,0.00,,,0.19,95,Wunderground v.1.15,2013-08-02 13:05:00,
2013-08-02 09:10:00,68.2,67.9,29.83,SSE,150,0.0,0.0,99,0.00,,,0.19,74,Wunderground v.1.15,2013-08-02 13:10:00,
2013-08-02 09:17:00,68.4,67.8,29.83,SSE,150,0.0,0.0,98,0.00,,,0.19,74,Wunderground v.1.15,2013-08-02 13:17:00,
2013-08-02 09:23:00,68.5,67.9,29.83,SSE,150,0.0,0.0,98,0.00,,,0.20,72,Wunderground v.1.15,2013-08-02 13:23:00,
2013-08-02 09:28:00,68.6,68.0,29.83,SSE,150,0.0,0.0,98,0.00,,,0.20,49,Wunderground v.1.15,2013-08-02 13:28:00,
2013-08-02 09:33:00,68.5,67.9,29.83,SSE,164,0.0,1.0,98,0.00,,,0.20,37,Wunderground v.1.15,2013-08-02 13:33:00,
2013-08-02 09:38:00,68.4,67.8,29.83,SSE,159,0.0,1.0,98,0.00,,,0.20,54,Wunderground v.1.15,2013-08-02 13:38:00,
2013-08-02 09:43:00,68.6,68.0,29.83,SSE,159,0.0,0.0,98,0.00,,,0.20,67,Wunderground v.1.15,2013-08-02 13:43:00,
2013-08-02 09:49:00,68.7,68.1,29.83,SSE,159,0.0,0.0,98,0.00,,,0.20,47,Wunderground v.1.15,2013-08-02 13:49:00,
2013-08-02 09:55:00,68.8,68.2,29.83,SSE,159,0.0,0.0,98,0.00,,,0.20,79,Wunderground v.1.15,2013-08-02 13:55:00,
2013-08-02 10:01:00,68.7,68.1,29.83,South,169,0.0,0.0,98,0.00,,,0.20,60,Wunderground v.1.15,2013-08-02 14:01:00,
2013-08-02 10:07:00,68.7,68.1,29.83,South,169,0.0,0.0,98,0.00,,,0.20,84,Wunderground v.1.15,2013-08-02 14:07:00,
2013-08-02 10:13:00,68.9,68.3,29.83,South,169,0.0,0.0,98,0.00,,,0.21,56,Wunderground v.1.15,2013-08-02 14:13:00,
2013-08-02 10:18:00,68.6,68.0,29.83,South,169,0.0,0.0,98,0.00,,,0.21,54,Wunderground v.1.15,2013-08-02 14:18:00,
2013-08-02 10:24:00,68.5,67.9,29.83,South,169,0.0,0.0,98,0.00,,,0.21,42,Wunderground v.1.15,2013-08-02 14:24:00,
2013-08-02 10:29:00,68.5,67.9,29.83,South,169,0.0,0.0,98,0.00,,,0.22,63,Wunderground v.1.15,2013-08-02 14:29:00,
2013-08-02 10:34:00,68.6,68.0,29.83,South,169,0.0,0.0,98,0.00,,,0.22,62,Wunderground v.1.15,2013-08-02 14:34:00,
2013-08-02 10:40:00,68.6,68.0,29.83,South,169,0.0,0.0,98,0.00,,,0.22,63,Wunderground v.1.15,2013-08-02 14:40:00,
2013-08-02 10:45:00,68.7,68.1,29.83,South,169,0.0,1.0,98,0.00,,,0.22,102,Wunderground v.1.15,2013-08-02 14:45:00,
2013-08-02 10:50:00,68.7,68.1,29.83,South,169,0.0,0.0,98,0.00,,,0.22,56,Wunderground v.1.15,2013-08-02 14:50:00,
2013-08-02 10:55:00,69.2,68.6,29.83,South,169,0.0,0.0,98,0.00,,,0.22,246,Wunderground v.1.15,2013-08-02 14:55:00,
2013-08-02 11:02:00,69.4,68.8,29.83,South,175,0.0,0.0,98,0.00,,,0.22,144,Wunderground v.1.15,2013-08-02 15:02:00,
2013-08-02 11:08:00,69.6,69.0,29.83,West,262,0.0,1.0,98,0.00,,,0.22,230,Wunderground v.1.15,2013-08-02 15:08:00,
2013-08-02 11:14:00,70.9,70.3,29.83,West,262,0.0,0.0,98,0.00,,,0.22,545,Wunderground v.1.15,2013-08-02 15:14:00,
2013-08-02 11:19:00,72.3,71.1,29.83,NW,315,0.0,1.0,96,0.00,,,0.22,828,Wunderground v.1.15,2013-08-02 15:19:00,
2013-08-02 11:24:00,73.3,72.1,29.83,NW,315,0.0,1.0,96,0.00,,,0.22,439,Wunderground v.1.15,2013-08-02 15:24:00,
2013-08-02 11:30:00,72.4,70.6,29.83,SW,216,0.0,1.0,94,0.00,,,0.22,188,Wunderground v.1.15,2013-08-02 15:30:00,
2013-08-02 11:35:00,73.0,71.8,29.83,WNW,296,0.0,1.0,96,0.00,,,0.22,239,Wunderground v.1.15,2013-08-02 15:35:00,
2013-08-02 11:41:00,72.9,70.4,29.83,WNW,282,0.0,1.0,92,0.00,,,0.22,334,Wunderground v.1.15,2013-08-02 15:41:00,
2013-08-02 11:48:00,74.5,72.3,29.83,WSW,248,0.0,1.0,93,0.00,,,0.22,1027,Wunderground v.1.15,2013-08-02 15:48:00,
2013-08-02 11:53:00,75.4,72.3,29.83,SSE,165,0.0,4.0,90,0.00,,,0.22,951,Wunderground v.1.15,2013-08-02 15:53:00,
2013-08-02 11:58:00,75.5,72.7,29.83,SSE,152,0.0,4.0,91,0.00,,,0.22,895,Wunderground v.1.15,2013-08-02 15:58:00,
2013-08-02 12:03:00,76.0,71.2,29.83,NW,315,1.0,2.0,85,0.00,,,0.22,965,Wunderground v.1.15,2013-08-02 16:03:00,
2013-08-02 12:08:00,76.2,71.4,29.83,East,83,1.0,2.0,85,0.00,,,0.22,306,Wunderground v.1.15,2013-08-02 16:08:00,
2013-08-02 12:14:00,76.1,70.9,29.83,WNW,290,1.0,3.0,84,0.00,,,0.22,158,Wunderground v.1.15,2013-08-02 16:14:00,
2013-08-02 12:18:00,75.4,71.6,29.83,West,271,1.0,3.0,88,0.00,,,0.22,134,Wunderground v.1.15,2013-08-02 16:18:00,
2013-08-02 12:24:00,74.8,71.0,29.83,WSW,240,0.0,2.0,88,0.00,,,0.22,146,Wunderground v.1.15,2013-08-02 16:24:00,
2013-08-02 12:29:00,74.6,70.8,29.83,West,275,0.0,0.0,88,0.00,,,0.22,127,Wunderground v.1.15,2013-08-02 16:29:00,
2013-08-02 12:36:00,74.9,70.4,29.82,NNW,338,0.0,2.0,86,0.00,,,0.22,172,Wunderground v.1.15,2013-08-02 16:36:00,
2013-08-02 12:41:00,75.9,70.4,29.82,North,350,1.0,1.0,83,0.00,,,0.22,246,Wunderground v.1.15,2013-08-02 16:41:00,
2013-08-02 12:46:00,76.4,70.5,29.83,West,264,1.0,1.0,82,0.00,,,0.22,619,Wunderground v.1.15,2013-08-02 16:46:00,
2013-08-02 12:52:00,76.8,70.9,29.83,NE,34,1.0,2.0,82,0.00,,,0.22,111,Wunderground v.1.15,2013-08-02 16:52:00,
2013-08-02 12:58:00,76.2,69.9,29.83,NNW,338,1.0,4.0,81,0.00,,,0.22,113,Wunderground v.1.15,2013-08-02 16:58:00,
2013-08-02 13:03:00,76.1,68.0,29.82,NNW,327,1.0,2.0,76,0.00,,,0.22,151,Wunderground v.1.15,2013-08-02 17:03:00,
2013-08-02 13:08:00,76.5,68.7,29.82,NNW,331,1.0,2.0,77,0.00,,,0.22,216,Wunderground v.1.15,2013-08-02 17:08:00,
2013-08-02 13:14:00,76.9,70.3,29.82,NW,319,1.0,1.0,80,0.00,,,0.22,257,Wunderground v.1.15,2013-08-02 17:14:00,
2013-08-02 13:19:00,77.5,70.1,29.82,WSW,249,0.0,0.0,78,0.00,,,0.22,86,Wunderground v.1.15,2013-08-02 17:19:00,
2013-08-02 13:25:00,77.9,68.5,29.82,NNE,15,1.0,3.0,73,0.00,,,0.22,107,Wunderground v.1.15,2013-08-02 17:25:00,
2013-08-02 13:30:00,78.0,68.2,29.82,SW,225,1.0,2.0,72,0.00,,,0.22,135,Wunderground v.1.15,2013-08-02 17:30:00,
2013-08-02 13:36:00,77.9,68.5,29.82,NNW,336,1.0,2.0,73,0.00,,,0.22,105,Wunderground v.1.15,2013-08-02 17:36:00,
2013-08-02 13:41:00,76.9,68.8,29.82,NNE,26,0.0,0.0,76,0.00,,,0.22,153,Wunderground v.1.15,2013-08-02 17:41:00,
2013-08-02 13:48:00,77.1,68.2,29.82,SW,222,1.0,2.0,74,0.00,,,0.22,111,Wunderground v.1.15,2013-08-02 17:48:00,
2013-08-02 13:53:00,77.7,68.0,29.82,NE,48,1.0,2.0,72,0.00,,,0.22,91,Wunderground v.1.15,2013-08-02 17:53:00,
2013-08-02 13:58:00,78.3,67.7,29.82,NW,304,1.0,3.0,70,0.00,,,0.22,111,Wunderground v.1.15,2013-08-02 17:58:00,
2013-08-02 14:03:00,78.8,65.6,29.82,ENE,59,1.0,6.0,64,0.00,,,0.22,174,Wunderground v.1.15,2013-08-02 18:03:00,
2013-08-02 14:08:00,78.6,67.2,29.82,NW,310,1.0,6.0,68,0.00,,,0.22,171,Wunderground v.1.15,2013-08-02 18:08:00,
2013-08-02 14:14:00,78.8,66.9,29.82,WNW,300,1.0,2.0,67,0.00,,,0.22,97,Wunderground v.1.15,2013-08-02 18:14:00,
2013-08-02 14:20:00,78.9,65.2,29.82,NNW,328,1.0,2.0,63,0.00,,,0.22,107,Wunderground v.1.15,2013-08-02 18:20:00,
2013-08-02 14:25:00,79.1,65.4,29.82,South,175,1.0,2.0,63,0.00,,,0.22,102,Wunderground v.1.15,2013-08-02 18:25:00,
2013-08-02 14:30:00,79.4,65.7,29.82,WSW,252,1.0,2.0,63,0.00,,,0.22,90,Wunderground v.1.15,2013-08-02 18:30:00,
2013-08-02 14:36:00,79.7,66.4,29.82,NW,318,1.0,2.0,64,0.00,,,0.22,88,Wunderground v.1.15,2013-08-02 18:36:00,
2013-08-02 14:43:00,79.7,65.1,29.82,West,269,1.0,2.0,61,0.00,,,0.22,111,Wunderground v.1.15,2013-08-02 18:43:00,
2013-08-02 14:49:00,79.9,68.0,29.82,NW,325,1.0,6.0,67,0.00,,,0.22,105,Wunderground v.1.15,2013-08-02 18:49:00,
2013-08-02 14:54:00,79.5,62.9,29.81,SE,139,1.0,3.0,57,0.00,,,0.22,113,Wunderground v.1.15,2013-08-02 18:54:00,
2013-08-02 14:59:00,79.9,64.8,29.81,ESE,103,1.0,2.0,60,0.00,,,0.22,123,Wunderground v.1.15,2013-08-02 18:59:00,
2013-08-02 15:04:00,80.6,67.3,29.81,NNE,24,1.0,2.0,64,0.00,,,0.22,98,Wunderground v.1.15,2013-08-02 19:04:00,
2013-08-02 15:09:00,81.0,66.3,29.81,WNW,296,1.0,1.0,61,0.00,,,0.22,107,Wunderground v.1.15,2013-08-02 19:09:00,
2013-08-02 15:14:00,81.2,66.9,29.81,West,270,1.0,1.0,62,0.00,,,0.22,114,Wunderground v.1.15,2013-08-02 19:14:00,
2013-08-02 15:21:00,81.5,64.3,29.81,WSW,258,1.0,3.0,56,0.00,,,0.22,195,Wunderground v.1.15,2013-08-02 19:21:00,
2013-08-02 15:27:00,82.0,64.8,29.81,WSW,238,1.0,3.0,56,0.00,,,0.22,251,Wunderground v.1.15,2013-08-02 19:27:00,
2013-08-02 15:33:00,82.2,64.4,29.81,West,279,1.0,1.0,55,0.00,,,0.22,229,Wunderground v.1.15,2013-08-02 19:33:00,
2013-08-02 15:38:00,82.1,64.3,29.81,NNW,342,1.0,4.0,55,0.00,,,0.22,141,Wunderground v.1.15,2013-08-02 19:38:00,
2013-08-02 15:44:00,82.2,64.4,29.81,West,279,1.0,2.0,55,0.00,,,0.22,749,Wunderground v.1.15,2013-08-02 19:44:00,
2013-08-02 15:50:00,82.8,63.9,29.82,South,169,1.0,2.0,53,0.00,,,0.22,744,Wunderground v.1.15,2013-08-02 19:50:00,
2013-08-02 15:56:00,82.7,63.3,29.82,NW,310,1.0,3.0,52,0.00,,,0.22,740,Wunderground v.1.15,2013-08-02 19:56:00,
2013-08-02 16:01:00,82.6,64.8,29.82,NNW,343,1.0,2.0,55,0.00,,,0.22,768,Wunderground v.1.15,2013-08-02 20:01:00,
2013-08-02 16:06:00,82.9,64.5,29.82,WNW,291,1.0,2.0,54,0.00,,,0.22,693,Wunderground v.1.15,2013-08-02 20:06:00,
2013-08-02 16:13:00,82.9,62.9,29.82,SW,225,1.0,6.0,51,0.00,,,0.22,589,Wunderground v.1.15,2013-08-02 20:13:00,
2013-08-02 16:18:00,82.7,64.4,29.82,West,269,1.0,6.0,54,0.00,,,0.22,635,Wunderground v.1.15,2013-08-02 20:18:00,
2013-08-02 16:24:00,82.8,63.9,29.82,NW,306,1.0,2.0,53,0.00,,,0.22,624,Wunderground v.1.15,2013-08-02 20:24:00,
2013-08-02 16:29:00,82.4,62.5,29.82,SW,232,2.0,4.0,51,0.00,,,0.22,612,Wunderground v.1.15,2013-08-02 20:29:00,
2013-08-02 16:34:00,82.2,63.4,29.82,West,271,2.0,3.0,53,0.00,,,0.22,592,Wunderground v.1.15,2013-08-02 20:34:00,
2013-08-02 16:39:00,82.0,62.1,29.82,WSW,243,2.0,2.0,51,0.00,,,0.22,555,Wunderground v.1.15,2013-08-02 20:39:00,
2013-08-02 16:44:00,81.1,62.9,29.81,North,5,1.0,2.0,54,0.00,,,0.22,587,Wunderground v.1.15,2013-08-02 20:44:00,
2013-08-02 16:50:00,81.6,63.9,29.81,North,355,0.0,1.0,55,0.00,,,0.22,485,Wunderground v.1.15,2013-08-02 20:50:00,
2013-08-02 16:57:00,81.9,64.1,29.81,SW,221,0.0,2.0,55,0.00,,,0.22,494,Wunderground v.1.15,2013-08-02 20:57:00,
2013-08-02 17:02:00,81.9,63.1,29.81,SW,219,0.0,3.0,53,0.00,,,0.22,519,Wunderground v.1.15,2013-08-02 21:02:00,
2013-08-02 17:08:00,81.7,64.5,29.81,West,273,1.0,4.0,56,0.00,,,0.22,487,Wunderground v.1.15,2013-08-02 21:08:00,
2013-08-02 17:13:00,81.2,63.5,29.82,NNE,15,1.0,1.0,55,0.00,,,0.22,489,Wunderground v.1.15,2013-08-02 21:13:00,
2013-08-02 17:19:00,80.9,63.2,29.82,NW,324,1.0,2.0,55,0.00,,,0.22,464,Wunderground v.1.15,2013-08-02 21:19:00,
2013-08-02 17:24:00,81.2,64.0,29.82,NNW,333,1.0,6.0,56,0.00,,,0.22,420,Wunderground v.1.15,2013-08-02 21:24:00,
2013-08-02 17:29:00,80.9,62.7,29.82,WSW,252,1.0,4.0,54,0.00,,,0.22,410,Wunderground v.1.15,2013-08-02 21:29:00,
2013-08-02 17:35:00,80.9,63.7,29.81,WNW,294,1.0,4.0,56,0.00,,,0.22,383,Wunderground v.1.15,2013-08-02 21:35:00,
2013-08-02 17:41:00,80.6,62.9,29.82,NNW,330,0.0,2.0,55,0.00,,,0.22,359,Wunderground v.1.15,2013-08-02 21:41:00,
2013-08-02 17:46:00,80.6,62.4,29.82,NNW,343,1.0,3.0,54,0.00,,,0.22,345,Wunderground v.1.15,2013-08-02 21:46:00,
2013-08-02 17:53:00,80.3,63.7,29.82,NNE,13,1.0,2.0,57,0.00,,,0.22,323,Wunderground v.1.15,2013-08-02 21:53:00,
2013-08-02 17:58:00,80.2,62.6,29.82,NNW,346,1.0,2.0,55,0.00,,,0.22,156,Wunderground v.1.15,2013-08-02 21:58:00,
2013-08-02 18:03:00,80.0,61.9,29.82,West,269,1.0,4.0,54,0.00,,,0.22,209,Wunderground v.1.15,2013-08-02 22:03:00,
2013-08-02 18:08:00,79.9,62.8,29.82,WNW,292,1.0,4.0,56,0.00,,,0.22,202,Wunderground v.1.15,2013-08-02 22:08:00,
2013-08-02 18:14:00,79.6,63.0,29.82,WSW,250,0.0,3.0,57,0.00,,,0.22,253,Wunderground v.1.15,2013-08-02 22:14:00,
2013-08-02 18:19:00,79.1,64.0,29.82,West,281,0.0,3.0,60,0.00,,,0.22,207,Wunderground v.1.15,2013-08-02 22:19:00,
2013-08-02 18:24:00,78.7,64.6,29.82,WSW,244,0.0,0.0,62,0.00,,,0.22,97,Wunderground v.1.15,2013-08-02 22:24:00,
2013-08-02 18:30:00,78.8,63.3,29.83,NW,312,0.0,0.0,59,0.00,,,0.22,46,Wunderground v.1.15,2013-08-02 22:30:00,
2013-08-02 18:35:00,78.6,64.0,29.83,WSW,249,0.0,1.0,61,0.00,,,0.22,77,Wunderground v.1.15,2013-08-02 22:35:00,
2013-08-02 18:40:00,78.3,63.7,29.83,SE,142,0.0,1.0,61,0.00,,,0.22,53,Wunderground v.1.15,2013-08-02 22:40:00,
2013-08-02 18:45:00,78.0,65.3,29.83,SSE,152,0.0,1.0,65,0.00,,,0.22,40,Wunderground v.1.15,2013-08-02 22:45:00,
2013-08-02 18:50:00,77.6,66.6,29.83,SSE,163,0.0,0.0,69,0.00,,,0.22,35,Wunderground v.1.15,2013-08-02 22:50:00,
2013-08-02 18:56:00,77.0,67.3,29.83,NW,305,0.0,0.0,72,0.00,,,0.22,33,Wunderground v.1.15,2013-08-02 22:56:00,
2013-08-02 19:03:00,76.6,66.9,29.84,South,175,0.0,2.0,72,0.00,,,0.22,30,Wunderground v.1.15,2013-08-02 23:03:00,
2013-08-02 19:08:00,76.4,67.1,29.84,ESE,112,0.0,2.0,73,0.00,,,0.22,26,Wunderground v.1.15,2013-08-02 23:08:00,
2013-08-02 19:13:00,76.3,67.4,29.84,SE,130,0.0,0.0,74,0.00,,,0.22,12,Wunderground v.1.15,2013-08-02 23:13:00,
2013-08-02 19:19:00,76.0,67.1,29.84,SE,133,0.0,0.0,74,0.00,,,0.22,12,Wunderground v.1.15,2013-08-02 23:19:00,
2013-08-02 19:24:00,75.6,67.1,29.84,SW,217,0.0,0.0,75,0.00,,,0.22,16,Wunderground v.1.15,2013-08-02 23:24:00,
2013-08-02 19:30:00,75.3,67.2,29.85,SW,217,0.0,0.0,76,0.00,,,0.22,18,Wunderground v.1.15,2013-08-02 23:30:00,
2013-08-02 19:37:00,75.0,66.9,29.85,SSW,199,0.0,0.0,76,0.00,,,0.22,16,Wunderground v.1.15,2013-08-02 23:37:00,
2013-08-02 19:42:00,74.8,67.1,29.85,SSW,207,0.0,0.0,77,0.00,,,0.22,12,Wunderground v.1.15,2013-08-02 23:42:00,
2013-08-02 19:48:00,74.5,67.2,29.85,ESE,121,0.0,0.0,78,0.00,,,0.22,7,Wunderground v.1.15,2013-08-02 23:48:00,
2013-08-02 19:53:00,74.4,66.7,29.85,SSE,147,0.0,0.0,77,0.00,,,0.22,5,Wunderground v.1.15,2013-08-02 23:53:00,
2013-08-02 19:58:00,74.2,66.9,29.86,WSW,237,0.0,0.0,78,0.00,,,0.22,5,Wunderground v.1.15,2013-08-02 23:58:00,
2013-08-02 20:04:00,74.0,66.7,29.86,SW,219,0.0,0.0,78,0.00,,,0.22,5,Wunderground v.1.15,2013-08-03 00:04:00,
2013-08-02 20:09:00,74.0,66.3,29.86,SW,219,0.0,0.0,77,0.00,,,0.22,0,Wunderground v.1.15,2013-08-03 00:09:00,
2013-08-02 20:14:00,73.8,66.1,29.86,NW,311,0.0,0.0,77,0.00,,,0.22,0,Wunderground v.1.15,2013-08-03 00:14:00,
2013-08-02 20:19:00,73.7,66.0,29.86,SSW,212,0.0,0.0,77,0.00,,,0.22,0,Wunderground v.1.15,2013-08-03 00:19:00,
2013-08-02 20:24:00,73.4,66.1,29.86,SSW,212,0.0,0.0,78,0.00,,,0.22,0,Wunderground v.1.15,2013-08-03 00:24:00,
2013-08-02 20:29:00,73.2,65.9,29.86,SSW,212,0.0,0.0,78,0.00,,,0.22,0,Wunderground v.1.15,2013-08-03 00:29:00,
2013-08-02 20:34:00,72.9,66.0,29.86,SSW,209,0.0,0.0,79,0.00,,,0.22,0,Wunderground v.1.15,2013-08-03 00:34:00,
2013-08-02 20:39:00,72.4,65.9,29.87,SSW,209,0.0,0.0,80,0.00,,,0.22,0,Wunderground v.1.15,2013-08-03 00:39:00,
2013-08-02 20:46:00,72.4,65.9,29.87,South,186,0.0,1.0,80,0.00,,,0.22,0,Wunderground v.1.15,2013-08-03 00:46:00,
2013-08-02 20:51:00,72.4,65.9,29.87,SW,224,0.0,0.0,80,0.00,,,0.22,0,Wunderground v.1.15,2013-08-03 00:51:00,
2013-08-02 20:57:00,72.3,65.4,29.87,SW,224,0.0,0.0,79,0.00,,,0.22,0,Wunderground v.1.15,2013-08-03 00:57:00,
2013-08-02 21:03:00,72.2,65.7,29.87,SW,224,0.0,0.0,80,0.00,,,0.22,0,Wunderground v.1.15,2013-08-03 01:03:00,
2013-08-02 21:08:00,72.0,65.1,29.88,SSW,200,0.0,0.0,79,0.00,,,0.22,0,Wunderground v.1.15,2013-08-03 01:08:00,
2013-08-02 21:13:00,71.9,65.4,29.88,SSW,200,0.0,0.0,80,0.00,,,0.22,0,Wunderground v.1.15,2013-08-03 01:13:00,
2013-08-02 21:19:00,71.7,65.2,29.88,West,262,0.0,0.0,80,0.00,,,0.22,0,Wunderground v.1.15,2013-08-03 01:19:00,
2013-08-02 21:24:00,71.4,64.9,29.88,West,262,0.0,0.0,80,0.00,,,0.22,0,Wunderground v.1.15,2013-08-03 01:24:00,
2013-08-02 21:30:00,71.5,65.4,29.88,West,262,0.0,0.0,81,0.00,,,0.22,0,Wunderground v.1.15,2013-08-03 01:30:00,
2013-08-02 21:35:00,71.5,65.4,29.89,WNW,300,0.0,0.0,81,0.00,,,0.22,0,Wunderground v.1.15,2013-08-03 01:35:00,
2013-08-02 21:41:00,71.4,65.3,29.89,North,350,0.0,0.0,81,0.00,,,0.22,0,Wunderground v.1.15,2013-08-03 01:41:00,
2013-08-02 21:47:00,71.3,65.5,29.89,North,350,0.0,0.0,82,0.00,,,0.22,0,Wunderground v.1.15,2013-08-03 01:47:00,
2013-08-02 21:53:00,71.2,65.4,29.89,North,350,0.0,0.0,82,0.00,,,0.22,0,Wunderground v.1.15,2013-08-03 01:53:00,
2013-08-02 21:59:00,71.1,65.7,29.89,North,350,0.0,0.0,83,0.00,,,0.22,0,Wunderground v.1.15,2013-08-03 01:59:00,
2013-08-02 22:04:00,71.1,66.0,29.89,East,81,0.0,0.0,84,0.00,,,0.22,0,Wunderground v.1.15,2013-08-03 02:04:00,
2013-08-02 22:10:00,70.9,65.8,29.89,NNW,347,0.0,0.0,84,0.00,,,0.22,0,Wunderground v.1.15,2013-08-03 02:10:00,
2013-08-02 22:15:00,70.9,65.8,29.89,NNW,347,0.0,0.0,84,0.00,,,0.22,0,Wunderground v.1.15,2013-08-03 02:15:00,
2013-08-02 22:22:00,70.8,66.1,29.90,North,355,0.0,0.0,85,0.00,,,0.22,0,Wunderground v.1.15,2013-08-03 02:22:00,
2013-08-02 22:28:00,70.7,66.0,29.90,NW,324,0.0,2.0,85,0.00,,,0.22,0,Wunderground v.1.15,2013-08-03 02:28:00,
2013-08-02 22:33:00,70.6,65.9,29.89,NW,324,0.0,0.0,85,0.00,,,0.22,0,Wunderground v.1.15,2013-08-03 02:33:00,
2013-08-02 22:38:00,70.6,65.9,29.90,WSW,252,0.0,0.0,85,0.00,,,0.22,0,Wunderground v.1.15,2013-08-03 02:38:00,
2013-08-02 22:43:00,70.5,66.1,29.90,SW,227,0.0,0.0,86,0.00,,,0.22,0,Wunderground v.1.15,2013-08-03 02:43:00,
2013-08-02 22:48:00,70.4,66.0,29.90,SW,227,0.0,0.0,86,0.00,,,0.22,0,Wunderground v.1.15,2013-08-03 02:48:00,
2013-08-02 22:54:00,70.3,65.9,29.90,SW,236,0.0,0.0,86,0.00,,,0.22,0,Wunderground v.1.15,2013-08-03 02:54:00,
2013-08-02 22:59:00,70.3,66.2,29.89,SW,236,0.0,0.0,87,0.00,,,0.22,0,Wunderground v.1.15,2013-08-03 02:59:00,
2013-08-02 23:05:00,70.2,66.1,29.89,SW,236,0.0,0.0,87,0.00,,,0.22,0,Wunderground v.1.15,2013-08-03 03:05:00,
2013-08-02 23:10:00,70.0,66.0,29.89,SW,236,0.0,0.0,87,0.00,,,0.22,0,Wunderground v.1.15,2013-08-03 03:10:00,
2013-08-02 23:16:00,69.9,65.9,29.89,SW,236,0.0,0.0,87,0.00,,,0.22,0,Wunderground v.1.15,2013-08-03 03:16:00,
2013-08-02 23:21:00,69.6,65.9,29.89,SW,236,0.0,0.0,88,0.00,,,0.22,0,Wunderground v.1.15,2013-08-03 03:21:00,
2013-08-02 23:27:00,69.4,65.7,29.89,SW,236,0.0,0.0,88,0.00,,,0.22,0,Wunderground v.1.15,2013-08-03 03:27:00,
2013-08-02 23:33:00,69.1,65.7,29.89,SW,236,0.0,0.0,89,0.00,,,0.22,0,Wunderground v.1.15,2013-08-03 03:33:00,
2013-08-02 23:39:00,69.0,65.9,29.89,SW,236,0.0,0.0,90,0.00,,,0.22,0,Wunderground v.1.15,2013-08-03 03:39:00,
2013-08-02 23:44:00,68.9,65.8,29.90,SW,236,0.0,0.0,90,0.00,,,0.22,0,Wunderground v.1.15,2013-08-03 03:44:00,
2013-08-02 23:49:00,68.8,65.7,29.90,SW,236,0.0,0.0,90,0.00,,,0.22,0,Wunderground v.1.15,2013-08-03 03:49:00,
2013-08-02 23:55:00,68.6,65.9,29.90,SW,236,0.0,0.0,91,0.00,,,0.22,0,Wunderground v.1.15,2013-08-03 03:55:00,